Time;durP1;ratioP1;P1;durP2;ratioP2;P2;SDS_P1;SDS_P2;PMS_P1;PMS_P2;Temp;Humidity;BMP_temperature;BMP_pressure;BME280_temperature;BME280_humidity;BME280_pressure;Samples;Min_cycle;Max_cycle;Signal;HPM_P1;HPM_P2
2022/11/04 00:01:05;;;;;;;27.98;26.27;;;;;;;14.23;68.88;100056.47;5027543;28;20491;-69
2022/11/04 00:03:31;;;;;;;28.85;27.05;;;;;;;14.22;68.66;100069.25;5024266;28;20037;-68
2022/11/04 00:06:00;;;;;;;27.80;26.08;;;;;;;14.23;68.90;100070.06;5021303;28;20030;-69
2022/11/04 00:08:25;;;;;;;;;;;;;;;14.22;68.74;100071.16;5024771;28;20037;-71
2022/11/04 00:13:41;;;;;;;27.63;25.90;;;;;;;14.20;68.43;100081.50;5039174;28;20036;-70
2022/11/04 00:18:51;;;;;;;26.40;24.85;;;;;;;14.17;68.57;100077.44;5015186;28;20044;-71
2022/11/04 00:29:28;;;;;;;26.40;24.88;;;;;;;14.13;68.26;100092.66;5019118;28;20052;-71
2022/11/04 00:34:37;;;;;;;29.13;27.40;;;;;;;14.12;68.47;100096.50;5039728;28;20052;-69
2022/11/04 00:37:02;;;;;;;27.95;26.35;;;;;;;14.10;68.23;100101.38;5034322;28;20037;-69
2022/11/04 00:39:28;;;;;;;27.30;25.20;;;;;;;14.11;68.45;100088.59;5034471;28;20040;-70
2022/11/04 00:41:54;;;;;;;28.35;26.63;;;;;;;14.09;68.20;100102.50;5012458;28;20068;-69
2022/11/04 00:44:19;;;;;;;28.35;26.45;;;;;;;14.09;68.30;100116.06;5040161;28;20026;-69
2022/11/04 00:46:45;;;;;;;27.38;25.75;;;;;;;14.09;68.47;100117.97;5014819;28;20034;-71
2022/11/04 00:49:10;;;;;;;28.33;26.08;;;;;;;14.08;68.19;100122.56;5020847;28;20468;-69
2022/11/04 00:51:35;;;;;;;27.88;26.27;;;;;;;14.06;68.45;100117.44;5030991;28;20074;-71
2022/11/04 00:54:01;;;;;;;28.63;26.85;;;;;;;14.07;68.36;100121.78;5036562;28;20508;-70
2022/11/04 00:56:26;;;;;;;31.10;28.90;;;;;;;14.06;68.21;100120.16;5018053;28;20034;-69
2022/11/04 00:58:52;;;;;;;28.27;26.60;;;;;;;14.05;68.03;100123.94;5017265;28;20042;-72
2022/11/04 01:01:18;;;;;;;30.65;28.02;;;;;;;14.05;68.53;100120.44;5021311;28;20038;-71
2022/11/04 01:03:45;;;;;;;26.83;25.27;;;;;;;14.03;68.57;100131.56;5027850;28;20021;-70
2022/11/04 01:06:11;;;;;;;28.25;25.20;;;;;;;14.04;68.15;100143.25;5035403;28;20436;-69
2022/11/04 01:08:36;;;;;;;28.42;26.85;;;;;;;14.02;67.86;100145.44;5025544;28;20503;-69
2022/11/04 01:11:07;;;;;;;27.35;25.70;;;;;;;14.02;68.12;100148.16;5022048;28;20462;-70
2022/11/04 01:13:33;;;;;;;25.60;24.00;;;;;;;14.00;67.97;100158.47;5015302;28;20029;-71
2022/11/04 01:15:59;;;;;;;28.25;26.52;;;;;;;14.00;67.94;100158.47;5025243;28;20100;-71
2022/11/04 01:18:25;;;;;;;29.45;27.48;;;;;;;13.98;67.97;100153.31;5036095;28;20033;-70
2022/11/04 01:20:50;;;;;;;26.85;25.25;;;;;;;13.98;67.86;100161.44;5018414;28;20038;-72
2022/11/04 01:23:16;;;;;;;27.75;26.05;;;;;;;13.98;68.06;100160.66;5022655;28;20481;-70
2022/11/04 01:25:41;;;;;;;27.35;25.75;;;;;;;13.96;68.12;100168.25;5029313;28;20029;-70
2022/11/04 01:28:07;;;;;;;29.17;27.48;;;;;;;13.95;67.93;100158.50;5031365;28;20049;-70
2022/11/04 01:30:32;;;;;;;26.15;24.73;;;;;;;13.94;67.83;100154.97;5026305;28;20045;-70
2022/11/04 01:32:57;;;;;;;27.52;25.73;;;;;;;13.93;68.14;100152.53;5017291;28;20393;-71
2022/11/04 01:35:23;;;;;;;27.08;25.35;;;;;;;13.92;67.85;100162.59;5034009;28;20025;-70
2022/11/04 01:37:48;;;;;;;26.10;24.63;;;;;;;13.91;67.91;100154.72;5031137;28;20079;-70
2022/11/04 01:40:13;;;;;;;25.85;24.38;;;;;;;13.90;67.74;100153.91;5015071;28;20057;-74
2022/11/04 01:42:39;;;;;;;25.48;24.10;;;;;;;13.89;67.88;100156.91;5026729;28;20034;-69
2022/11/04 01:45:11;;;;;;;26.58;24.88;;;;;;;13.88;68.08;100149.84;5021550;28;20308;-70
2022/11/04 01:47:42;;;;;;;27.38;25.73;;;;;;;13.88;67.84;100155.28;5020331;28;20025;-70
2022/11/04 01:50:16;;;;;;;25.67;24.05;;;;;;;13.86;67.94;100147.44;5017182;28;20037;-70
2022/11/04 01:52:41;;;;;;;26.77;25.17;;;;;;;13.84;68.12;100150.41;5028230;28;20041;-71
2022/11/04 01:55:13;;;;;;;25.52;23.92;;;;;;;13.83;68.19;100148.78;5029859;28;20036;-71
2022/11/04 01:57:41;;;;;;;26.40;24.75;;;;;;;13.82;67.95;100149.88;5034353;28;20117;-71
2022/11/04 02:00:08;;;;;;;26.85;25.15;;;;;;;13.82;67.58;100152.59;5034308;28;20069;-69
2022/11/04 02:02:39;;;;;;;26.60;25.00;;;;;;;13.81;67.93;100147.44;5022270;28;20783;-71
2022/11/04 02:05:05;;;;;;;25.50;23.67;;;;;;;13.80;67.82;100148.53;5026597;28;20052;-70
2022/11/04 02:07:31;;;;;;;27.95;26.17;;;;;;;13.79;67.65;100155.06;5026146;28;20460;-69
2022/11/04 02:09:57;;;;;;;26.27;24.83;;;;;;;13.77;67.64;100151.81;5024652;28;20033;-70
2022/11/04 02:15:06;;;;;;;24.80;22.88;;;;;;;13.75;67.94;100164.84;5014025;28;20052;-71
2022/11/04 02:17:36;;;;;;;28.42;26.77;;;;;;;13.73;67.82;100158.88;5030778;28;20033;-70
2022/11/04 02:20:26;;;;;;;24.55;23.20;;;;;;;13.72;67.47;100159.97;5023365;28;20458;-69
2022/11/04 02:23:24;;;;;;;26.65;24.95;;;;;;;13.69;67.61;100155.91;5024500;28;20469;-69
2022/11/04 02:26:14;;;;;;;27.60;25.65;;;;;;;13.68;67.54;100162.41;5028795;28;20026;-69
2022/11/04 02:29:17;;;;;;;25.10;23.52;;;;;;;13.65;67.46;100162.97;5032405;28;20053;-70
2022/11/04 02:32:39;;;;;;;25.85;24.23;;;;;;;13.62;67.62;100156.19;5018452;28;20026;-70
2022/11/04 02:35:10;;;;;;;23.20;21.80;;;;;;;13.60;67.30;100165.69;5027838;28;20037;-70
2022/11/04 02:38:01;;;;;;;25.65;23.95;;;;;;;13.58;67.61;100163.28;5013360;28;20029;-70
2022/11/04 02:40:41;;;;;;;25.17;23.58;;;;;;;13.57;67.31;100158.91;5026459;28;20053;-70
2022/11/04 02:43:25;;;;;;;24.80;23.58;;;;;;;13.55;67.17;100166.53;5013498;28;20494;-69
2022/11/04 02:46:04;;;;;;;25.55;24.15;;;;;;;13.54;67.41;100170.34;5025607;28;20036;-69
2022/11/04 02:48:46;;;;;;;23.98;22.67;;;;;;;13.53;67.44;100170.59;5026912;28;20064;-71
2022/11/04 02:51:21;;;;;;;23.30;21.88;;;;;;;13.51;67.75;100162.75;5033847;28;20051;-69
2022/11/04 02:53:55;;;;;;;23.38;21.90;;;;;;;13.51;67.66;100162.75;5020150;28;20029;-70
2022/11/04 02:56:21;;;;;;;25.52;23.98;;;;;;;13.50;67.56;100169.25;5036309;28;20030;-74
2022/11/04 02:58:57;;;;;;;24.38;22.65;;;;;;;13.50;67.67;100173.88;5014309;28;20041;-70
2022/11/04 03:01:28;;;;;;;26.08;24.48;;;;;;;13.49;67.70;100174.97;5034183;28;20116;-69
2022/11/04 03:04:10;;;;;;;24.58;23.27;;;;;;;13.48;67.54;100181.47;5014470;28;20461;-69
2022/11/04 03:06:37;;;;;;;24.83;23.42;;;;;;;13.46;67.66;100179.06;5014061;28;20128;-69
2022/11/04 03:09:03;;;;;;;26.50;25.05;;;;;;;13.45;67.64;100182.84;5013888;28;20034;-70
2022/11/04 03:11:30;;;;;;;26.23;24.27;;;;;;;13.45;67.67;100180.13;5030274;28;20121;-69
2022/11/04 03:14:00;;;;;;;23.80;22.45;;;;;;;13.45;67.33;100190.16;5038857;28;20472;-71
2022/11/04 03:16:48;;;;;;;24.50;22.92;;;;;;;13.44;67.32;100193.97;5013792;28;20021;-69
2022/11/04 03:19:44;;;;;;;23.65;22.35;;;;;;;13.41;67.37;100193.44;5030165;28;20060;-70
2022/11/04 03:22:19;;;;;;;23.73;22.52;;;;;;;13.40;67.56;100186.38;5033396;28;20057;-69
2022/11/04 03:24:46;;;;;;;24.45;23.05;;;;;;;13.39;67.58;100192.09;5017817;28;20034;-69
2022/11/04 03:27:31;;;;;;;23.77;22.50;;;;;;;13.38;67.73;100195.88;5019551;28;20450;-71
2022/11/04 03:30:08;;;;;;;22.73;21.40;;;;;;;13.35;67.51;100186.38;5030336;28;20077;-70
2022/11/04 03:32:52;;;;;;;24.15;22.65;;;;;;;13.34;67.42;100194.81;5034318;28;20036;-69
2022/11/04 03:35:18;;;;;;;23.25;21.95;;;;;;;13.33;67.36;100185.88;5033426;28;20121;-71
2022/11/04 03:37:45;;;;;;;24.20;22.80;;;;;;;13.32;67.36;100192.34;5012481;28;20104;-69
2022/11/04 03:40:12;;;;;;;24.30;22.90;;;;;;;13.31;67.34;100192.66;5033190;28;20037;-69
2022/11/04 03:42:45;;;;;;;25.23;23.73;;;;;;;13.31;67.64;100193.47;5038462;28;20037;-71
2022/11/04 03:45:12;;;;;;;24.30;22.98;;;;;;;13.28;67.40;100196.72;5043134;28;20029;-71
2022/11/04 03:47:38;;;;;;;26.48;24.63;;;;;;;13.28;67.23;100190.47;5030596;28;20040;-70
2022/11/04 03:50:22;;;;;;;23.90;22.38;;;;;;;13.27;67.27;100189.66;5047271;28;20037;-70
2022/11/04 03:52:48;;;;;;;24.77;23.48;;;;;;;13.26;67.24;100190.72;5020690;28;20021;-68
2022/11/04 03:55:14;;;;;;;24.20;22.90;;;;;;;13.25;67.49;100191.78;5020228;28;20044;-70
2022/11/04 03:57:55;;;;;;;24.02;22.38;;;;;;;13.24;67.52;100195.59;5018417;28;20038;-71
2022/11/04 04:00:22;;;;;;;24.30;22.80;;;;;;;13.23;67.38;100198.59;5033513;28;20026;-70
2022/11/04 04:03:14;;;;;;;24.05;22.80;;;;;;;13.21;67.33;100190.72;5024538;28;20066;-70
2022/11/04 04:05:48;;;;;;;25.15;23.85;;;;;;;13.19;67.47;100187.47;5018931;28;20108;-69
2022/11/04 04:08:26;;;;;;;25.83;24.33;;;;;;;13.18;67.32;100191.28;5019755;28;20040;-70
2022/11/04 04:10:58;;;;;;;24.20;22.63;;;;;;;13.17;67.45;100197.78;5014338;28;20088;-69
2022/11/04 04:14:10;;;;;;;23.17;21.88;;;;;;;13.15;67.35;100191.81;5025167;28;20079;-71
2022/11/04 04:16:44;;;;;;;25.23;23.83;;;;;;;13.14;67.21;100201.03;5020922;28;20114;-68
2022/11/04 04:19:20;;;;;;;23.63;22.30;;;;;;;13.12;67.31;100203.22;5024783;28;20432;-71
2022/11/04 04:21:55;;;;;;;22.65;21.35;;;;;;;13.11;67.44;100209.72;5021821;28;20476;-69
2022/11/04 04:27:30;;;;;;;23.67;22.17;;;;;;;13.08;67.35;100207.53;5026504;28;20488;-68
2022/11/04 04:30:07;;;;;;;23.35;22.13;;;;;;;13.06;67.37;100207.84;5022161;28;20397;-69
2022/11/04 04:33:02;;;;;;;23.83;22.55;;;;;;;13.05;67.23;100208.09;5024664;28;20057;-68
2022/11/04 04:35:40;;;;;;;23.42;22.20;;;;;;;13.03;67.09;100221.94;5034314;28;20076;-68
2022/11/04 04:46:48;;;;;;;24.10;22.63;;;;;;;12.96;67.32;100227.63;5036250;28;20520;-68
2022/11/04 04:49:14;;;;;;;24.60;22.70;;;;;;;12.94;67.27;100218.13;5037790;28;20476;-69
2022/11/04 04:51:46;;;;;;;24.42;22.85;;;;;;;12.93;67.16;100221.94;5027428;28;20044;-69
2022/11/04 04:54:12;;;;;;;23.80;22.50;;;;;;;12.91;67.09;100222.19;5027989;28;20100;-69
2022/11/04 04:56:38;;;;;;;23.92;22.45;;;;;;;12.91;67.28;100221.38;5029400;28;20484;-71
2022/11/04 04:59:04;;;;;;;22.60;21.13;;;;;;;12.90;67.02;100222.47;5012770;28;20030;-70
2022/11/04 05:01:29;;;;;;;24.25;22.95;;;;;;;12.89;67.01;100227.06;5018292;28;20038;-70
2022/11/04 05:03:54;;;;;;;25.75;24.35;;;;;;;12.88;67.03;100227.38;5030184;28;20036;-70
2022/11/04 05:06:20;;;;;;;23.60;22.10;;;;;;;12.87;67.29;100233.84;5027409;28;20470;-69
2022/11/04 05:08:45;;;;;;;24.17;22.60;;;;;;;12.86;67.22;100241.19;5034601;28;20523;-71
2022/11/04 05:11:11;;;;;;;22.08;20.92;;;;;;;12.85;66.95;100241.44;5042397;28;20033;-69
2022/11/04 05:13:36;;;;;;;23.23;21.95;;;;;;;12.84;67.15;100247.94;5028173;28;20060;-71
2022/11/04 05:16:04;;;;;;;23.35;21.55;;;;;;;12.82;66.93;100245.50;5023087;28;21928;-71
2022/11/04 05:18:29;;;;;;;22.33;21.15;;;;;;;12.82;67.00;100259.03;5025484;28;20091;-70
2022/11/04 05:20:55;;;;;;;22.98;21.67;;;;;;;12.81;67.08;100264.75;5027229;28;20654;-70
2022/11/04 05:23:20;;;;;;;22.67;21.17;;;;;;;12.80;67.09;100260.41;5025731;28;20026;-71
2022/11/04 05:25:46;;;;;;;23.77;22.05;;;;;;;12.77;67.00;100257.16;5012962;28;20044;-69
2022/11/04 05:28:12;;;;;;;22.15;20.98;;;;;;;12.76;67.22;100260.94;5025977;28;20076;-70
2022/11/04 05:30:37;;;;;;;22.48;21.23;;;;;;;12.75;67.04;100264.75;5028802;28;20054;-69
2022/11/04 05:33:03;;;;;;;22.70;21.48;;;;;;;12.74;67.26;100263.09;5047314;28;20396;-69
2022/11/04 05:35:28;;;;;;;21.65;20.35;;;;;;;12.73;67.14;100268.81;5043951;28;20033;-70
2022/11/04 05:37:55;;;;;;;23.83;22.52;;;;;;;12.72;67.17;100273.38;5030044;28;20437;-69
2022/11/04 05:40:21;;;;;;;22.80;21.50;;;;;;;12.70;67.06;100278.28;5043023;28;20030;-69
2022/11/04 05:42:46;;;;;;;25.08;23.27;;;;;;;12.69;67.33;100273.94;5035504;28;20545;-69
2022/11/04 05:45:11;;;;;;;24.13;22.73;;;;;;;12.68;67.23;100280.44;5038525;28;20119;-71
2022/11/04 05:47:37;;;;;;;21.58;20.48;;;;;;;12.68;67.37;100287.78;5026791;28;20465;-70
2022/11/04 05:50:02;;;;;;;23.10;21.90;;;;;;;12.66;67.19;100288.03;5022887;28;20046;-73
2022/11/04 05:52:28;;;;;;;22.98;21.80;;;;;;;12.65;67.16;100291.00;5031821;28;20025;-72
2022/11/04 05:54:53;;;;;;;24.25;22.75;;;;;;;12.64;67.34;100283.97;5030471;28;20148;-69
2022/11/04 05:57:19;;;;;;;21.83;20.63;;;;;;;12.63;67.21;100288.56;5015521;28;20030;-69
2022/11/04 05:59:44;;;;;;;24.02;22.63;;;;;;;12.61;67.35;100290.72;5015235;28;20026;-69
2022/11/04 06:02:09;;;;;;;24.17;22.58;;;;;;;12.61;67.29;100288.00;5015423;28;20381;-68
2022/11/04 06:04:35;;;;;;;21.80;20.58;;;;;;;12.59;67.31;100284.75;5032920;28;20033;-72
2022/11/04 06:07:00;;;;;;;23.20;22.00;;;;;;;12.58;67.19;100285.84;5029241;28;20038;-70
2022/11/04 06:09:37;;;;;;;22.05;20.88;;;;;;;12.57;67.19;100295.03;5019756;28;20443;-69
2022/11/04 06:12:10;;;;;;;23.08;21.52;;;;;;;12.55;67.26;100292.63;5033733;28;20167;-70
2022/11/04 06:14:36;;;;;;;23.30;22.10;;;;;;;12.55;67.28;100298.03;5036503;28;20461;-71
2022/11/04 06:17:02;;;;;;;22.52;20.83;;;;;;;12.53;67.02;100300.19;5014940;28;20045;-70
2022/11/04 06:19:28;;;;;;;21.80;20.60;;;;;;;12.53;67.10;100299.38;5025671;28;20389;-68
2022/11/04 06:21:53;;;;;;;25.23;23.73;;;;;;;12.52;67.30;100298.56;5034061;28;20457;-69
2022/11/04 06:24:18;;;;;;;20.95;19.85;;;;;;;12.50;67.36;100306.16;5049834;28;20040;-69
2022/11/04 06:26:44;;;;;;;25.05;23.65;;;;;;;12.50;67.13;100316.16;5026065;28;20034;-71
2022/11/04 06:29:10;;;;;;;21.63;20.33;;;;;;;12.49;67.43;100312.63;5035023;28;20041;-69
2022/11/04 06:31:35;;;;;;;22.08;20.92;;;;;;;12.48;67.18;100311.00;5033107;28;20034;-69
2022/11/04 06:34:00;;;;;;;21.95;20.85;;;;;;;12.47;67.24;100320.22;5014027;28;20618;-70
2022/11/04 06:36:26;;;;;;;21.52;20.42;;;;;;;12.47;66.91;100319.38;5035527;28;20581;-71
2022/11/04 06:38:51;;;;;;;24.08;22.70;;;;;;;12.45;67.24;100322.38;5027066;28;20078;-71
2022/11/04 06:41:17;;;;;;;22.70;21.42;;;;;;;12.44;66.97;100326.16;5014785;28;20041;-73
2022/11/04 06:43:43;;;;;;;21.63;20.13;;;;;;;12.44;67.12;100333.47;5021448;28;20378;-74
2022/11/04 06:46:43;;;;;;;22.05;20.77;;;;;;;12.44;67.25;100333.47;5021625;28;20125;-70
2022/11/04 06:49:12;;;;;;;21.23;19.90;;;;;;;12.41;67.23;100334.81;5037512;28;20077;-70
2022/11/04 06:51:38;;;;;;;23.08;21.88;;;;;;;12.41;67.07;100340.22;5028885;28;20455;-75
2022/11/04 06:54:03;;;;;;;23.02;21.65;;;;;;;12.40;67.37;100348.63;5017840;28;20038;-70
2022/11/04 06:56:29;;;;;;;21.63;20.10;;;;;;;12.38;67.13;100346.19;5028000;28;20068;-71
2022/11/04 06:58:55;;;;;;;22.55;20.83;;;;;;;12.39;67.16;100349.69;5039837;28;20110;-74
2022/11/04 07:01:22;;;;;;;21.40;20.30;;;;;;;12.38;67.29;100354.31;5017506;28;20411;-71
2022/11/04 07:03:53;;;;;;;22.08;20.67;;;;;;;12.37;67.27;100349.94;5033810;28;20070;-70
2022/11/04 07:06:20;;;;;;;23.60;22.35;;;;;;;12.36;67.31;100344.81;5029025;28;20033;-70
2022/11/04 07:08:46;;;;;;;22.23;21.00;;;;;;;12.36;66.97;100353.75;5031551;28;20032;-74
2022/11/04 07:11:12;;;;;;;22.40;21.20;;;;;;;12.34;67.22;100356.72;5024170;28;20022;-70
2022/11/04 07:13:39;;;;;;;24.33;22.98;;;;;;;12.34;66.91;100353.19;5020995;28;20037;-69
2022/11/04 07:16:06;;;;;;;23.27;21.85;;;;;;;12.33;67.25;100355.09;5013636;28;20034;-71
2022/11/04 07:18:31;;;;;;;23.08;21.67;;;;;;;12.33;67.19;100357.00;5033095;28;20037;-70
2022/11/04 07:20:57;;;;;;;24.63;22.63;;;;;;;12.32;67.00;100364.31;5030136;28;20376;-72
2022/11/04 07:23:23;;;;;;;21.27;20.05;;;;;;;12.32;67.00;100363.47;5019011;28;20589;-70
2022/11/04 07:25:49;;;;;;;22.67;21.08;;;;;;;12.31;67.08;100370.78;5018112;28;20030;-72
2022/11/04 07:28:14;;;;;;;22.27;20.92;;;;;;;12.31;67.07;100368.06;5021341;28;20049;-71
2022/11/04 07:30:40;;;;;;;21.67;20.23;;;;;;;12.29;67.25;100370.22;5030450;28;20031;-70
2022/11/04 07:33:05;;;;;;;24.58;22.73;;;;;;;12.29;67.30;100378.34;5033266;28;20030;-74
2022/11/04 07:35:31;;;;;;;21.73;20.60;;;;;;;12.29;67.27;100377.53;5034483;28;20045;-69
2022/11/04 07:37:56;;;;;;;21.73;20.42;;;;;;;12.28;67.11;100375.94;5016516;28;20405;-69
2022/11/04 07:40:21;;;;;;;23.90;22.45;;;;;;;12.28;67.09;100384.06;5019406;28;20184;-71
2022/11/04 07:42:47;;;;;;;22.10;20.70;;;;;;;12.27;67.02;100398.66;5016317;28;20030;-74
2022/11/04 07:45:12;;;;;;;21.65;20.35;;;;;;;12.25;67.09;100396.22;5047538;28;20443;-71
2022/11/04 07:47:37;;;;;;;22.08;20.60;;;;;;;12.25;67.21;100396.22;5032824;28;20069;-71
2022/11/04 07:50:03;;;;;;;23.88;22.38;;;;;;;12.25;67.23;100396.22;5037868;28;20138;-71
2022/11/04 07:52:29;;;;;;;23.30;21.25;;;;;;;12.25;67.41;100403.53;5022236;28;20092;-71
2022/11/04 07:54:54;;;;;;;22.27;20.90;;;;;;;12.23;67.07;100401.09;5032738;28;20025;-73
2022/11/04 07:57:19;;;;;;;22.23;20.92;;;;;;;12.23;67.10;100400.28;5047464;28;20282;-71
2022/11/04 07:59:45;;;;;;;23.00;21.65;;;;;;;12.23;67.20;100408.41;5026395;28;20539;-71
2022/11/04 08:02:10;;;;;;;23.00;21.38;;;;;;;12.23;67.07;100405.69;5025163;28;20120;-70
2022/11/04 08:04:36;;;;;;;22.13;20.65;;;;;;;12.23;67.24;100413.81;5025441;28;20048;-70
2022/11/04 08:07:02;;;;;;;22.85;21.05;;;;;;;12.21;67.17;100408.66;5024993;28;20032;-69
2022/11/04 08:09:27;;;;;;;23.63;22.23;;;;;;;12.22;67.05;100423.00;5048625;28;20037;-68
2022/11/04 08:11:53;;;;;;;24.10;22.67;;;;;;;12.21;67.28;100416.78;5036583;28;20026;-72
2022/11/04 08:14:18;;;;;;;24.10;22.52;;;;;;;12.20;67.13;100412.44;5028074;28;20100;-71
2022/11/04 08:16:44;;;;;;;21.58;20.23;;;;;;;12.21;67.17;100416.78;5016722;28;20477;-68
2022/11/04 08:19:10;;;;;;;24.02;22.52;;;;;;;12.20;67.20;100419.75;5024750;28;20057;-73
2022/11/04 08:21:35;;;;;;;21.85;20.60;;;;;;;12.19;67.37;100418.91;5032471;28;20033;-68
2022/11/04 08:24:04;;;;;;;22.77;21.33;;;;;;;12.20;67.30;100419.75;5047033;28;20025;-70
2022/11/04 08:26:30;;;;;;;23.35;21.60;;;;;;;12.20;67.10;100420.56;5026455;28;20053;-70
2022/11/04 08:28:56;;;;;;;24.48;22.77;;;;;;;12.19;67.51;100418.91;5031224;28;20076;-69
2022/11/04 08:31:27;;;;;;;23.95;22.23;;;;;;;12.19;67.20;100424.34;5026900;28;20044;-70
2022/11/04 08:33:54;;;;;;;22.90;21.17;;;;;;;12.19;67.30;100424.34;5024460;28;20037;-69
2022/11/04 08:36:35;;;;;;;22.42;21.10;;;;;;;12.19;67.31;100434.34;5025411;28;20033;-69
2022/11/04 08:39:03;;;;;;;23.02;21.05;;;;;;;12.18;67.06;100436.25;5036292;28;20116;-72
2022/11/04 08:41:31;;;;;;;20.45;19.10;;;;;;;12.18;67.16;100444.38;5022351;28;20154;-73
2022/11/04 08:43:59;;;;;;;22.23;20.50;;;;;;;12.19;67.19;100450.59;5034698;28;20024;-70
2022/11/04 08:46:26;;;;;;;21.40;20.15;;;;;;;12.17;67.16;100445.47;5047077;28;20039;-70
2022/11/04 08:48:51;;;;;;;21.55;19.98;;;;;;;12.18;67.23;100454.41;5031501;28;20072;-70
2022/11/04 08:51:22;;;;;;;22.17;20.80;;;;;;;12.18;67.42;100448.97;5031762;28;20072;-72
2022/11/04 08:53:48;;;;;;;21.05;19.65;;;;;;;12.18;67.34;100462.53;5030966;28;20079;-70
2022/11/04 08:56:20;;;;;;;23.90;22.25;;;;;;;12.17;67.42;100467.13;5025729;28;20041;-73
2022/11/04 08:58:46;;;;;;;21.50;19.95;;;;;;;12.19;67.49;100469.56;5030518;28;20036;-73
2022/11/04 09:01:11;;;;;;;23.27;21.83;;;;;;;12.20;67.37;100473.91;5026556;28;20029;-71
2022/11/04 09:03:38;;;;;;;22.30;21.10;;;;;;;12.20;67.33;100468.50;5024239;28;20386;-73
2022/11/04 09:06:06;;;;;;;21.20;20.00;;;;;;;12.20;67.58;100471.22;5032605;28;20377;-73
2022/11/04 09:08:32;;;;;;;20.58;19.15;;;;;;;12.19;67.42;100470.38;5022579;28;20091;-70
2022/11/04 09:10:57;;;;;;;22.15;20.60;;;;;;;12.19;67.29;100474.97;5031769;28;20037;-76
2022/11/04 09:13:22;;;;;;;23.08;21.23;;;;;;;12.19;67.42;100483.09;5017874;28;20474;-71
2022/11/04 09:15:48;;;;;;;22.88;20.88;;;;;;;12.19;67.45;100485.81;5035218;28;20025;-70
2022/11/04 09:18:14;;;;;;;23.83;22.33;;;;;;;12.19;67.54;100488.50;5036939;28;20026;-71
2022/11/04 09:20:42;;;;;;;22.58;20.98;;;;;;;12.19;67.49;100485.81;5028877;28;20049;-71
2022/11/04 09:23:08;;;;;;;24.40;22.90;;;;;;;12.19;67.61;100497.44;5019062;28;20426;-70
2022/11/04 09:25:34;;;;;;;22.48;20.65;;;;;;;12.19;67.68;100500.16;5013949;28;20553;-70
2022/11/04 09:28:00;;;;;;;22.70;21.27;;;;;;;12.20;67.42;100509.94;5018020;28;20112;-71
2022/11/04 09:30:26;;;;;;;24.45;22.80;;;;;;;12.21;67.65;100510.72;5028058;28;20053;-71
2022/11/04 09:32:51;;;;;;;24.05;22.25;;;;;;;12.20;67.63;100511.81;5024225;28;20041;-72
2022/11/04 09:35:17;;;;;;;23.45;21.95;;;;;;;12.21;67.40;100514.25;5028666;28;20034;-70
2022/11/04 09:37:43;;;;;;;23.75;22.05;;;;;;;12.20;67.66;100511.81;5014147;28;20491;-70
2022/11/04 09:40:14;;;;;;;23.40;21.75;;;;;;;12.21;67.71;100516.97;5022073;28;20041;-72
2022/11/04 09:42:58;;;;;;;22.70;21.35;;;;;;;12.22;67.93;100518.63;5020077;28;20039;-70
2022/11/04 09:45:27;;;;;;;21.83;20.17;;;;;;;12.22;67.68;100524.03;5026229;28;20065;-70
2022/11/04 09:47:59;;;;;;;22.48;20.77;;;;;;;12.23;67.83;100522.13;5019660;28;20047;-71
2022/11/04 09:50:27;;;;;;;22.95;21.45;;;;;;;12.22;67.63;100532.16;5031767;28;20129;-71
2022/11/04 09:53:02;;;;;;;22.17;20.67;;;;;;;12.22;67.78;100534.84;5026788;28;20032;-70
2022/11/04 09:55:40;;;;;;;25.05;23.20;;;;;;;12.23;67.75;100541.91;5015839;28;20061;-70
2022/11/04 09:58:10;;;;;;;21.83;20.50;;;;;;;12.23;67.70;100546.50;5028712;28;20415;-70
2022/11/04 10:00:38;;;;;;;22.60;21.10;;;;;;;12.24;67.68;100545.41;5019083;28;20021;-71
2022/11/04 10:03:22;;;;;;;23.67;21.95;;;;;;;12.25;67.61;100553.28;5017566;28;20535;-71
2022/11/04 10:06:01;;;;;;;23.08;21.40;;;;;;;12.26;67.71;100562.22;5039077;28;20043;-72
2022/11/04 10:08:44;;;;;;;;;;;;;;;12.25;67.55;100561.41;5028664;28;20103;-70
2022/11/04 10:11:09;;;;;;;25.08;23.40;;;;;;;12.25;67.55;100574.16;5011340;28;19948;-74
2022/11/04 10:14:18;;;;;;;23.13;21.63;;;;;;;12.25;67.69;100568.72;5011491;28;20053;-72
2022/11/04 10:16:49;;;;;;;22.40;20.77;;;;;;;12.25;67.82;100571.44;5031975;28;20022;-74
2022/11/04 10:19:45;;;;;;;27.48;25.02;;;;;;;12.26;68.15;100571.16;5017007;28;20029;-71
2022/11/04 10:22:38;;;;;;;24.80;22.65;;;;;;;12.28;67.71;100571.72;5011419;28;20080;-73
2022/11/04 10:25:13;;;;;;;23.88;22.15;;;;;;;12.30;67.87;100582.31;5010007;28;20532;-70
2022/11/04 10:27:43;;;;;;;23.17;21.67;;;;;;;12.31;67.82;100579.34;5016296;28;20045;-72
2022/11/04 10:30:12;;;;;;;25.67;23.38;;;;;;;12.33;68.02;100582.59;5009712;28;20134;-72
2022/11/04 10:32:58;;;;;;;27.75;25.60;;;;;;;12.34;68.29;100578.00;5011634;28;20050;-71
2022/11/04 10:35:39;;;;;;;25.92;23.85;;;;;;;12.34;68.04;100578.81;5011022;28;20109;-71
2022/11/04 10:38:30;;;;;;;23.10;21.67;;;;;;;12.36;68.20;100577.75;5037493;28;20030;-70
2022/11/04 10:40:56;;;;;;;22.70;21.35;;;;;;;12.36;68.03;100586.69;5015363;28;20038;-69
2022/11/04 10:43:39;;;;;;;27.02;25.15;;;;;;;12.37;68.15;100590.22;5014347;28;20466;-68
2022/11/04 10:46:30;;;;;;;24.73;22.75;;;;;;;12.37;68.30;100595.63;5015195;28;20104;-68
2022/11/04 10:49:11;;;;;;;23.92;22.08;;;;;;;12.37;67.99;100601.84;5014646;28;20034;-68
2022/11/04 10:51:37;;;;;;;26.33;24.38;;;;;;;12.38;68.00;100600.78;5014653;28;20478;-69
2022/11/04 10:54:08;;;;;;;25.38;23.38;;;;;;;12.41;68.04;100604.88;5015014;28;20030;-68
2022/11/04 10:56:44;;;;;;;25.30;23.40;;;;;;;12.40;68.11;100604.06;5015030;28;20026;-68
2022/11/04 10:59:28;;;;;;;27.25;24.95;;;;;;;12.42;68.02;100607.31;5033771;28;20458;-69
2022/11/04 11:01:58;;;;;;;25.40;23.25;;;;;;;12.42;68.01;100611.91;5019067;28;20025;-69
2022/11/04 11:04:34;;;;;;;33.30;30.20;;;;;;;12.44;68.30;100617.91;5014113;28;20057;-69
2022/11/04 11:07:06;;;;;;;27.65;25.23;;;;;;;12.45;68.56;100627.69;5014629;28;20026;-69
2022/11/04 11:09:35;;;;;;;24.13;22.13;;;;;;;12.45;68.16;100631.19;5030229;28;20021;-69
2022/11/04 11:12:02;;;;;;;;;;;;;;;12.47;68.43;100630.94;5015123;28;20032;-70
2022/11/04 11:14:27;;;;;;;25.65;23.60;;;;;;;12.46;68.08;100626.59;5014152;28;19956;-71
2022/11/04 11:16:54;;;;;;;25.10;23.25;;;;;;;12.48;68.28;100632.56;5014223;28;20489;-71
2022/11/04 11:19:21;;;;;;;24.23;22.23;;;;;;;12.48;68.06;100638.81;5013848;28;20076;-71
2022/11/04 11:21:49;;;;;;;23.42;21.92;;;;;;;12.50;68.18;100633.13;5013986;28;20032;-69
2022/11/04 11:24:19;;;;;;;28.60;25.92;;;;;;;12.51;68.24;100627.44;5013849;28;20484;-70
2022/11/04 11:26:49;;;;;;;24.98;23.35;;;;;;;12.53;68.33;100633.44;5014377;28;20454;-70
2022/11/04 11:29:24;;;;;;;27.83;25.55;;;;;;;12.55;68.28;100633.19;5013723;28;20053;-70
2022/11/04 11:31:55;;;;;;;28.77;26.35;;;;;;;12.56;68.29;100626.69;5013517;28;20552;-70
2022/11/04 11:34:25;;;;;;;28.02;25.90;;;;;;;12.58;68.38;100629.13;5013447;28;20030;-70
2022/11/04 11:36:52;;;;;;;28.42;25.75;;;;;;;12.60;68.32;100621.53;5014491;28;20040;-71
2022/11/04 11:39:26;;;;;;;27.40;25.52;;;;;;;12.60;68.30;100618.84;5013620;28;20018;-70
2022/11/04 11:42:05;;;;;;;24.85;23.02;;;;;;;12.62;68.19;100624.81;5013739;28;20053;-71
2022/11/04 11:44:41;;;;;;;26.52;24.60;;;;;;;12.64;68.12;100626.19;5013833;28;20057;-71
2022/11/04 11:47:19;;;;;;;24.00;22.23;;;;;;;12.66;68.22;100628.66;5013936;28;20481;-71
2022/11/04 11:49:44;;;;;;;24.85;22.95;;;;;;;12.67;68.24;100628.38;5013498;28;20053;-71
2022/11/04 11:52:32;;;;;;;26.85;24.58;;;;;;;12.69;68.28;100623.53;5013760;28;20022;-72
2022/11/04 11:55:06;;;;;;;25.83;24.07;;;;;;;12.70;68.32;100641.44;5014004;28;20037;-72